Time,TemperatureF,DewpointF,PressureIn,WindDirection,WindDirectionDegrees,WindSpeedMPH,WindSpeedGustMPH,Humidity,HourlyPrecipIn,Conditions,Clouds,dailyrainin,SoftwareType,DateUTC
2013-02-06 00:01:00,29.8,27.0,30.11,WNW,285,1.0,3.0,89,0.00,,,0.00,weatherlink.com 1.10,2013-02-06 06:01:00,
2013-02-06 00:16:00,29.7,27.0,30.13,SSW,211,0.0,2.0,90,0.00,,,0.00,weatherlink.com 1.10,2013-02-06 06:16:00,
2013-02-06 00:31:00,30.1,27.0,30.13,West,262,0.0,1.0,89,0.00,,,0.00,weatherlink.com 1.10,2013-02-06 06:31:00,
2013-02-06 00:46:00,29.6,27.0,30.13,WNW,292,0.0,1.0,89,0.00,,,0.00,weatherlink.com 1.10,2013-02-06 06:46:00,
2013-02-06 01:01:00,29.6,27.0,30.13,WNW,293,0.0,0.0,90,0.00,,,0.00,weatherlink.com 1.10,2013-02-06 07:01:00,
2013-02-06 01:16:00,29.3,27.0,30.14,WNW,293,0.0,1.0,90,0.00,,,0.00,weatherlink.com 1.10,2013-02-06 07:16:00,
2013-02-06 01:31:00,28.5,26.0,30.15,WNW,292,0.0,0.0,91,0.00,,,0.00,weatherlink.com 1.10,2013-02-06 07:31:00,
2013-02-06 01:46:00,28.1,26.0,30.15,WNW,293,0.0,0.0,91,0.00,,,0.00,weatherlink.com 1.10,2013-02-06 07:46:00,
2013-02-06 02:01:00,28.4,27.0,30.16,WSW,256,0.0,1.0,94,0.00,,,0.00,weatherlink.com 1.10,2013-02-06 08:01:00,
2013-02-06 02:16:00,28.6,27.0,30.16,SSE,163,1.0,2.0,92,0.00,,,0.00,weatherlink.com 1.10,2013-02-06 08:16:00,
2013-02-06 02:31:00,28.8,27.0,30.17,South,169,0.0,3.0,93,0.00,,,0.00,weatherlink.com 1.10,2013-02-06 08:31:00,
2013-02-06 02:46:00,28.8,27.0,30.16,South,169,0.0,0.0,93,0.00,,,0.00,weatherlink.com 1.10,2013-02-06 08:46:00,
2013-02-06 03:01:00,28.7,27.0,30.16,South,169,0.0,0.0,93,0.00,,,0.00,weatherlink.com 1.10,2013-02-06 09:01:00,
2013-02-06 03:16:00,28.1,26.0,30.16,South,169,0.0,0.0,93,0.00,,,0.00,weatherlink.com 1.10,2013-02-06 09:16:00,
2013-02-06 03:31:00,27.9,26.0,30.15,South,169,0.0,0.0,93,0.00,,,0.00,weatherlink.com 1.10,2013-02-06 09:31:00,
2013-02-06 03:47:00,27.6,26.0,30.15,South,169,0.0,0.0,94,0.00,,,0.00,weatherlink.com 1.10,2013-02-06 09:47:00,
2013-02-06 04:01:00,28.2,27.0,30.15,East,97,1.0,1.0,94,0.00,,,0.00,weatherlink.com 1.10,2013-02-06 10:01:00,
2013-02-06 04:16:00,28.1,27.0,30.16,East,98,0.0,0.0,94,0.00,,,0.00,weatherlink.com 1.10,2013-02-06 10:16:00,
2013-02-06 04:31:00,25.6,24.0,30.16,East,98,0.0,1.0,92,0.00,,,0.00,weatherlink.com 1.10,2013-02-06 10:31:00,
2013-02-06 04:46:00,25.5,24.0,30.17,East,98,0.0,0.0,94,0.00,,,0.00,weatherlink.com 1.10,2013-02-06 10:46:00,
2013-02-06 05:01:00,25.1,24.0,30.18,East,98,0.0,1.0,95,0.00,,,0.00,weatherlink.com 1.10,2013-02-06 11:01:00,
2013-02-06 06:09:00,26.7,26.0,30.18,East,82,0.0,0.0,95,0.00,,,0.00,weatherlink.com 1.10,2013-02-06 12:09:00,
2013-02-06 06:17:00,27.6,27.0,30.18,East,82,0.0,1.0,96,0.00,,,0.00,weatherlink.com 1.10,2013-02-06 12:17:00,
2013-02-06 06:32:00,26.3,25.0,30.19,East,82,0.0,0.0,94,0.00,,,0.00,weatherlink.com 1.10,2013-02-06 12:32:00,
2013-02-06 06:47:00,27.0,26.0,30.19,SSE,149,0.0,2.0,96,0.00,,,0.00,weatherlink.com 1.10,2013-02-06 12:47:00,
2013-02-06 07:02:00,25.2,24.0,30.20,SSE,149,0.0,1.0,94,0.00,,,0.00,weatherlink.com 1.10,2013-02-06 13:02:00,
2013-02-06 07:17:00,26.2,25.0,30.20,East,82,1.0,3.0,95,0.00,,,0.00,weatherlink.com 1.10,2013-02-06 13:17:00,
2013-02-06 07:32:00,26.9,26.0,30.19,ENE,71,3.0,3.0,95,0.00,,,0.00,weatherlink.com 1.10,2013-02-06 13:32:00,
2013-02-06 07:47:00,27.6,26.0,30.19,ENE,78,2.0,2.0,95,0.00,,,0.00,weatherlink.com 1.10,2013-02-06 13:47:00,
2013-02-06 08:02:00,28.1,27.0,30.19,SSW,198,0.0,2.0,94,0.00,,,0.00,weatherlink.com 1.10,2013-02-06 14:02:00,
2013-02-06 08:18:00,28.3,27.0,30.19,East,86,3.0,4.0,93,0.00,,,0.00,weatherlink.com 1.10,2013-02-06 14:18:00,
2013-02-06 08:32:00,29.3,28.0,30.20,SSE,160,1.0,3.0,94,0.00,,,0.00,weatherlink.com 1.10,2013-02-06 14:32:00,
2013-02-06 08:47:00,31.3,30.0,30.21,SSE,159,2.0,2.0,94,0.00,,,0.00,weatherlink.com 1.10,2013-02-06 14:47:00,
2013-02-06 09:02:00,32.8,31.0,30.21,SE,127,1.0,3.0,91,0.00,,,0.00,weatherlink.com 1.10,2013-02-06 15:02:00,
2013-02-06 09:17:00,33.9,31.0,30.22,SSE,150,2.0,4.0,89,0.00,,,0.00,weatherlink.com 1.10,2013-02-06 15:17:00,
2013-02-06 09:32:00,35.4,32.0,30.22,South,173,5.0,6.0,86,0.00,,,0.00,weatherlink.com 1.10,2013-02-06 15:32:00,
2013-02-06 09:47:00,35.8,31.0,30.23,SSW,200,5.0,8.0,83,0.00,,,0.00,weatherlink.com 1.10,2013-02-06 15:47:00,
2013-02-06 10:02:00,36.2,31.0,30.23,South,175,1.0,10.0,82,0.00,,,0.00,weatherlink.com 1.10,2013-02-06 16:02:00,
2013-02-06 10:17:00,37.3,32.0,30.22,SSE,151,5.0,7.0,81,0.00,,,0.00,weatherlink.com 1.10,2013-02-06 16:17:00,
2013-02-06 10:33:00,38.0,32.0,30.21,SW,221,6.0,9.0,79,0.00,,,0.00,weatherlink.com 1.10,2013-02-06 16:33:00,
2013-02-06 10:47:00,38.3,32.0,30.21,South,177,7.0,10.0,79,0.00,,,0.00,weatherlink.com 1.10,2013-02-06 16:47:00,
2013-02-06 11:03:00,39.9,33.0,30.21,South,181,6.0,9.0,76,0.00,,,0.00,weatherlink.com 1.10,2013-02-06 17:03:00,
2013-02-06 11:18:00,40.9,33.0,30.21,SE,127,4.0,10.0,74,0.00,,,0.00,weatherlink.com 1.10,2013-02-06 17:18:00,
2013-02-06 11:33:00,41.7,33.0,30.20,South,188,5.0,10.0,71,0.00,,,0.00,weatherlink.com 1.10,2013-02-06 17:33:00,
2013-02-06 11:48:00,42.3,34.0,30.19,South,188,8.0,9.0,71,0.00,,,0.00,weatherlink.com 1.10,2013-02-06 17:48:00,
2013-02-06 12:03:00,43.4,34.0,30.18,South,186,3.0,11.0,69,0.00,,,0.00,weatherlink.com 1.10,2013-02-06 18:03:00,
2013-02-06 12:18:00,44.6,35.0,30.19,SSE,152,3.0,9.0,68,0.00,,,0.00,weatherlink.com 1.10,2013-02-06 18:18:00,
2013-02-06 12:33:00,44.5,33.0,30.18,SSW,200,10.0,16.0,65,0.00,,,0.00,weatherlink.com 1.10,2013-02-06 18:33:00,
2013-02-06 12:48:00,44.7,33.0,30.18,SW,216,19.0,19.0,64,0.00,,,0.00,weatherlink.com 1.10,2013-02-06 18:48:00,
2013-02-06 13:07:00,-999.0,-99.9,0.00,North,-999,-999.0,-999.0,-999,0.00,,,0.00,weatherlink.com 1.10,2013-02-06 19:07:00,
2013-02-06 13:15:00,-999.0,-99.9,30.16,North,-999,-999.0,-999.0,-999,0.00,,,0.00,weatherlink.com 1.10,2013-02-06 19:15:00,
2013-02-06 13:27:00,45.9,33.0,30.16,SSE,158,10.0,14.0,62,0.00,,,0.00,weatherlink.com 1.10,2013-02-06 19:27:00,
2013-02-06 13:42:00,46.6,33.0,30.15,SE,146,15.0,15.0,60,0.00,,,0.00,weatherlink.com 1.10,2013-02-06 19:42:00,
2013-02-06 13:57:00,46.4,33.0,30.14,SSW,208,8.0,16.0,61,0.00,,,0.00,weatherlink.com 1.10,2013-02-06 19:57:00,
2013-02-06 14:12:00,47.0,33.0,30.14,South,183,7.0,15.0,59,0.00,,,0.00,weatherlink.com 1.10,2013-02-06 20:12:00,
2013-02-06 14:27:00,47.6,34.0,30.13,SSE,150,3.0,11.0,59,0.00,,,0.00,weatherlink.com 1.10,2013-02-06 20:27:00,
2013-02-06 14:42:00,47.7,33.0,30.12,SSE,162,2.0,8.0,57,0.00,,,0.00,weatherlink.com 1.10,2013-02-06 20:42:00,
2013-02-06 14:58:00,47.9,32.0,30.10,ESE,113,7.0,12.0,55,0.00,,,0.00,weatherlink.com 1.10,2013-02-06 20:58:00,
2013-02-06 15:12:00,48.2,33.0,30.09,ESE,118,5.0,10.0,57,0.00,,,0.00,weatherlink.com 1.10,2013-02-06 21:12:00,
2013-02-06 15:28:00,47.5,32.0,30.08,SE,127,5.0,10.0,55,0.00,,,0.00,weatherlink.com 1.10,2013-02-06 21:28:00,
2013-02-06 15:44:00,46.6,32.0,30.08,East,101,3.0,8.0,58,0.00,,,0.00,weatherlink.com 1.10,2013-02-06 21:44:00,
2013-02-06 15:57:00,46.2,32.0,30.08,SE,131,3.0,9.0,57,0.00,,,0.00,weatherlink.com 1.10,2013-02-06 21:57:00,
2013-02-06 16:12:00,46.0,33.0,30.08,ESE,113,4.0,8.0,60,0.00,,,0.00,weatherlink.com 1.10,2013-02-06 22:12:00,
2013-02-06 16:27:00,45.7,33.0,30.08,ESE,120,4.0,6.0,61,0.00,,,0.00,weatherlink.com 1.10,2013-02-06 22:27:00,
2013-02-06 16:42:00,45.5,33.0,30.09,ESE,108,3.0,6.0,63,0.00,,,0.00,weatherlink.com 1.10,2013-02-06 22:42:00,
2013-02-06 16:57:00,45.9,33.0,30.09,SE,146,5.0,6.0,61,0.00,,,0.00,weatherlink.com 1.10,2013-02-06 22:57:00,
2013-02-06 17:12:00,44.8,33.0,30.09,ESE,104,2.0,7.0,63,0.00,,,0.00,weatherlink.com 1.10,2013-02-06 23:12:00,
2013-02-06 17:27:00,44.0,33.0,30.08,ESE,105,6.0,8.0,65,0.00,,,0.00,weatherlink.com 1.10,2013-02-06 23:27:00,
2013-02-06 17:42:00,43.7,33.0,30.08,East,93,4.0,9.0,67,0.00,,,0.00,weatherlink.com 1.10,2013-02-06 23:42:00,
2013-02-06 17:57:00,43.5,34.0,30.08,ESE,110,3.0,9.0,68,0.00,,,0.00,weatherlink.com 1.10,2013-02-06 23:57:00,
2013-02-06 18:12:00,43.2,34.0,30.08,East,98,4.0,9.0,69,0.00,,,0.00,weatherlink.com 1.10,2013-02-07 00:12:00,
2013-02-06 18:27:00,42.9,33.0,30.08,ESE,105,10.0,10.0,69,0.00,,,0.00,weatherlink.com 1.10,2013-02-07 00:27:00,
2013-02-06 18:43:00,42.5,33.0,30.08,ESE,115,5.0,11.0,69,0.00,,,0.00,weatherlink.com 1.10,2013-02-07 00:43:00,
2013-02-06 18:57:00,42.2,33.0,30.07,SE,127,6.0,11.0,69,0.00,,,0.00,weatherlink.com 1.10,2013-02-07 00:57:00,
2013-02-06 19:12:00,41.7,32.0,30.07,SE,141,5.0,9.0,68,0.00,,,0.00,weatherlink.com 1.10,2013-02-07 01:12:00,
2013-02-06 19:28:00,41.5,32.0,30.06,ESE,117,6.0,8.0,69,0.00,,,0.00,weatherlink.com 1.10,2013-02-07 01:28:00,
2013-02-06 19:43:00,41.0,32.0,30.06,East,96,4.0,7.0,71,0.00,,,0.00,weatherlink.com 1.10,2013-02-07 01:43:00,
2013-02-06 19:58:00,40.2,32.0,30.06,East,98,4.0,6.0,73,0.00,,,0.00,weatherlink.com 1.10,2013-02-07 01:58:00,
2013-02-06 20:13:00,40.1,33.0,30.06,SE,124,3.0,8.0,75,0.00,,,0.00,weatherlink.com 1.10,2013-02-07 02:13:00,
2013-02-06 20:28:00,39.9,33.0,30.05,SE,136,5.0,10.0,75,0.00,,,0.00,weatherlink.com 1.10,2013-02-07 02:28:00,
2013-02-06 20:43:00,39.7,33.0,30.06,SE,133,3.0,7.0,76,0.00,,,0.00,weatherlink.com 1.10,2013-02-07 02:43:00,
2013-02-06 20:58:00,39.5,33.0,30.06,ESE,120,2.0,7.0,76,0.00,,,0.00,weatherlink.com 1.10,2013-02-07 02:58:00,
2013-02-06 21:13:00,39.3,32.0,30.07,SE,124,2.0,8.0,76,0.00,,,0.00,weatherlink.com 1.10,2013-02-07 03:13:00,
2013-02-06 21:28:00,38.7,32.0,30.07,SE,124,2.0,7.0,77,0.00,,,0.00,weatherlink.com 1.10,2013-02-07 03:28:00,
2013-02-06 21:43:00,38.3,32.0,30.07,ESE,116,4.0,7.0,78,0.00,,,0.00,weatherlink.com 1.10,2013-02-07 03:43:00,
2013-02-06 21:58:00,38.2,32.0,30.07,SE,143,3.0,9.0,79,0.00,,,0.00,weatherlink.com 1.10,2013-02-07 03:58:00,
2013-02-06 22:13:00,38.4,32.0,30.07,SE,124,2.0,7.0,79,0.00,,,0.00,weatherlink.com 1.10,2013-02-07 04:13:00,
2013-02-06 22:28:00,38.3,32.0,30.07,ESE,112,5.0,6.0,79,0.00,,,0.00,weatherlink.com 1.10,2013-02-07 04:28:00,
2013-02-06 22:43:00,38.1,32.0,30.06,SE,129,3.0,7.0,79,0.00,,,0.00,weatherlink.com 1.10,2013-02-07 04:43:00,
2013-02-06 22:58:00,37.9,32.0,30.06,ESE,121,2.0,5.0,80,0.00,,,0.00,weatherlink.com 1.10,2013-02-07 04:58:00,
2013-02-06 23:13:00,37.7,32.0,30.05,SE,127,4.0,7.0,81,0.00,,,0.00,weatherlink.com 1.10,2013-02-07 05:13:00,
2013-02-06 23:28:00,37.6,32.0,30.04,ESE,122,3.0,7.0,81,0.00,,,0.00,weatherlink.com 1.10,2013-02-07 05:28:00,
2013-02-06 23:43:00,37.7,32.0,30.04,SSE,148,3.0,7.0,81,0.00,,,0.00,weatherlink.com 1.10,2013-02-07 05:43:00,
2013-02-06 23:58:00,37.7,32.0,30.03,SE,131,4.0,8.0,81,0.00,,,0.00,weatherlink.com 1.10,2013-02-07 05:58:00,